Baskc, Croatia
Current Conditions -  °F | °C
As of 3:00 PM on Wednesday 22 Oct 2014 (Local Time) from LDRI Reporting Station
Few Clouds Few Clouds  
Wind Chill: 59°   Ceiling: Unl
Heat Index: 59°   Visibility: 6mi
Dew Point: 46°   Wind: 2mph
Humidity: 63%   Direction: NA
Pressure: 29.74"   Gusts: NA
Location:  44.98°N, 14.75°E
Report Text: LDRI 221400Z VRB02KT 9999 FEW043 15/08 Q1007
Loading
Personal Weather Stations






























Interactive Weather Map
Tropical Storm Tracking
New forecast layout! Learn more

10-Day Weather Forecast

Advertisements
Track Severe Weather on mobile